Terminal Aerodrome Forecast
Issued by NWS South Bend, IN

Home | Current Version | Previous Version | Text Only | Print | Product List | Glossary Off
Versions: 1 2 3 4 5 6 7 8 9 10 11 12 13

000
FTUS43 KIWX 241100
TAFSBN
TAF
KSBN 241139Z 2412/2512 20006KT P6SM SCT250
     FM242300 08008KT P6SM OVC060=

USA.gov is the U.S. government's official web portal to all federal, state and local government web resources and services.